| time (UTC) | temp C | wind direction | speed KPH | gust KPH | rain 1hr cm | rain 24hr cm | rain mn cm | humidity % | barometer mb |
| 20260906213003 | 20 | 326 | 8.0 | 12.9 | 0.00 | 0.03 | 0.03 | 75 | 1019.5 |
| 20260906212002 | 20 | 11 | 6.4 | 11.3 | 0.00 | 0.03 | 0.03 | 75 | 1019.6 |
| 20260906211503 | 20 | 315 | 6.4 | 12.9 | 0.00 | 0.03 | 0.03 | 75 | 1019.6 |
| 20260906211003 | 20 | 25 | 8.0 | 11.3 | 0.00 | 0.03 | 0.03 | 74 | 1019.6 |
| 20260906210503 | 20 | 24 | 6.4 | 14.5 | 0.00 | 0.03 | 0.03 | 75 | 1019.6 |
| 20260906210003 | 20 | 347 | 8.0 | 19.3 | 0.00 | 0.03 | 0.03 | 74 | 1019.6 |
| 20260906205502 | 20 | 37 | 6.4 | 12.9 | 0.00 | 0.03 | 0.03 | 74 | 1019.7 |
| 20260906204503 | 20 | 342 | 8.0 | 11.3 | 0.00 | 0.03 | 0.03 | 75 | 1019.6 |
| 20260906204003 | 20 | 47 | 8.0 | 19.3 | 0.00 | 0.03 | 0.03 | 74 | 1019.6 |
| 20260906203504 | 20 | 323 | 8.0 | 14.5 | 0.00 | 0.03 | 0.03 | 75 | 1019.5 |
| 20260906202503 | 20 | 44 | 4.8 | 16.1 | 0.00 | 0.03 | 0.03 | 76 | 1019.6 |
| 20260906202003 | 19 | 0 | 9.7 | 19.3 | 0.00 | 0.03 | 0.03 | 77 | 1019.5 |
| 20260906201503 | 20 | 330 | 6.4 | 12.9 | 0.00 | 0.03 | 0.03 | 76 | 1019.6 |
| 20260906201003 | 20 | 18 | 6.4 | 16.1 | 0.00 | 0.03 | 0.03 | 76 | 1019.5 |
| 20260906200503 | 20 | 346 | 6.4 | 12.9 | 0.00 | 0.03 | 0.03 | 77 | 1019.6 |
| 20260906195503 | 20 | 15 | 9.7 | 14.5 | 0.00 | 0.03 | 0.03 | 76 | 1019.6 |
| 20260906195002 | 20 | 14 | 9.7 | 19.3 | 0.00 | 0.03 | 0.03 | 76 | 1019.5 |
| 20260906192003 | 19 | 55 | 8.0 | 14.5 | 0.00 | 0.03 | 0.03 | 78 | 1019.5 |
| 20260906191503 | 19 | 69 | 4.8 | 12.9 | 0.00 | 0.03 | 0.03 | 77 | 1019.5 |
| 20260906191003 | 20 | 346 | 9.7 | 19.3 | 0.00 | 0.03 | 0.03 | 77 | 1019.5 |
| 20260906190504 | 20 | 43 | 8.0 | 14.5 | 0.00 | 0.03 | 0.03 | 77 | 1019.4 |
| 20260906185503 | 19 | 37 | 11.3 | 19.3 | 0.00 | 0.03 | 0.03 | 77 | 1019.6 |
| 20260906185004 | 19 | 41 | 6.4 | 11.3 | 0.00 | 0.03 | 0.03 | 81 | 1019.5 |
| 20260906183504 | 19 | 11 | 9.7 | 14.5 | 0.00 | 0.03 | 0.03 | 76 | 1019.5 |
| 20260906183003 | 19 | 0 | 9.7 | 19.3 | 0.00 | 0.03 | 0.03 | 77 | 1019.5 |
| 20260906182503 | 19 | 71 | 8.0 | 19.3 | 0.00 | 0.03 | 0.03 | 80 | 1019.5 |
| 20260906181503 | 19 | 10 | 9.7 | 16.1 | 0.00 | 0.03 | 0.03 | 79 | 1019.5 |
| 20260906180503 | 19 | 0 | 6.4 | 14.5 | 0.00 | 0.03 | 0.03 | 81 | 1019.6 |
| 20260906180004 | 19 | 26 | 6.4 | 25.7 | 0.00 | 0.03 | 0.03 | 79 | 1019.6 |
| 20260906175503 | 19 | 56 | 8.0 | 19.3 | 0.00 | 0.03 | 0.03 | 79 | 1019.6 |
| 20260906174504 | 18 | 43 | 9.7 | 19.3 | 0.00 | 0.03 | 0.03 | 80 | 1019.7 |
| 20260906174003 | 19 | 16 | 9.7 | 16.1 | 0.00 | 0.03 | 0.03 | 79 | 1019.6 |
| 20260906173503 | 19 | 78 | 11.3 | 20.9 | 0.00 | 0.03 | 0.03 | 80 | 1019.6 |
| 20260906173003 | 19 | 13 | 8.0 | 19.3 | 0.00 | 0.03 | 0.03 | 79 | 1019.7 |
| 20260906172503 | 19 | 75 | 8.0 | 19.3 | 0.00 | 0.03 | 0.03 | 80 | 1019.7 |
| 20260906172003 | 19 | 15 | 6.4 | 19.3 | 0.00 | 0.03 | 0.03 | 82 | 1019.8 |
| 20260906171503 | 19 | 70 | 11.3 | 19.3 | 0.00 | 0.03 | 0.03 | 79 | 1019.7 |
| 20260906171003 | 19 | 82 | 6.4 | 19.3 | 0.00 | 0.03 | 0.03 | 80 | 1019.7 |
| 20260906170503 | 19 | 33 | 8.0 | 16.1 | 0.00 | 0.03 | 0.03 | 80 | 1019.6 |
| 20260906170003 | 19 | 21 | 6.4 | 14.5 | 0.00 | 0.03 | 0.03 | 82 | 1019.6 |
| 20260906165003 | 18 | 78 | 8.0 | 19.3 | 0.00 | 0.03 | 0.03 | 81 | 1019.5 |
| 20260906164503 | 19 | 42 | 9.7 | 20.9 | 0.00 | 0.03 | 0.03 | 79 | 1019.5 |
| 20260906164004 | 19 | 322 | 8.0 | 16.1 | 0.00 | 0.03 | 0.03 | 81 | 1019.5 |
| 20260906163504 | 19 | 0 | 9.7 | 22.5 | 0.00 | 0.03 | 0.03 | 81 | 1019.5 |
| 20260906163003 | 19 | 27 | 8.0 | 19.3 | 0.00 | 0.03 | 0.03 | 81 | 1019.5 |
| 20260906162503 | 20 | 12 | 9.7 | 14.5 | 0.00 | 0.03 | 0.03 | 82 | 1019.5 |
| 20260906162004 | 19 | 64 | 11.3 | 19.3 | 0.00 | 0.03 | 0.03 | 81 | 1019.5 |
| 20260906161503 | 19 | 63 | 9.7 | 19.3 | 0.00 | 0.03 | 0.03 | 82 | 1019.6 |
| 20260906161004 | 19 | 347 | 11.3 | 24.1 | 0.00 | 0.03 | 0.03 | 80 | 1019.6 |
| 20260906160504 | 19 | 57 | 8.0 | 19.3 | 0.00 | 0.03 | 0.03 | 83 | 1019.6 |
| 20260906155503 | 18 | 68 | 9.7 | 19.3 | 0.00 | 0.03 | 0.03 | 82 | 1019.5 |
| 20260906154503 | 19 | 353 | 8.0 | 19.3 | 0.00 | 0.03 | 0.03 | 83 | 1019.5 |
| 20260906154003 | 19 | 76 | 8.0 | 19.3 | 0.00 | 0.03 | 0.03 | 84 | 1019.5 |
| 20260906153504 | 18 | 54 | 11.3 | 19.3 | 0.00 | 0.03 | 0.03 | 82 | 1019.4 |
| 20260906153004 | 18 | 49 | 12.9 | 20.9 | 0.00 | 0.03 | 0.03 | 84 | 1019.5 |
| 20260906152503 | 18 | 13 | 9.7 | 19.3 | 0.00 | 0.03 | 0.03 | 82 | 1019.5 |
| 20260906152004 | 19 | 76 | 9.7 | 20.9 | 0.00 | 0.03 | 0.03 | 83 | 1019.5 |
| 20260906151504 | 19 | 10 | 11.3 | 20.9 | 0.00 | 0.03 | 0.03 | 83 | 1019.5 |
| 20260906150004 | 19 | 57 | 9.7 | 20.9 | 0.00 | 0.03 | 0.03 | 84 | 1019.5 |
| 20260906145503 | 18 | 24 | 11.3 | 24.1 | 0.00 | 0.03 | 0.03 | 85 | 1019.4 |
| 20260906144504 | 18 | 68 | 8.0 | 19.3 | 0.03 | 0.03 | 0.03 | 83 | 1019.4 |
| 20260906143504 | 18 | 74 | 8.0 | 19.3 | 0.03 | 0.03 | 0.03 | 83 | 1019.5 |
| 20260906143003 | 18 | 65 | 8.0 | 20.9 | 0.03 | 0.03 | 0.03 | 84 | 1019.5 |
| 20260906142504 | 18 | 67 | 8.0 | 14.5 | 0.03 | 0.03 | 0.03 | 83 | 1019.3 |
| 20260906142003 | 18 | 62 | 9.7 | 19.3 | 0.03 | 0.03 | 0.03 | 84 | 1019.2 |
| 20260906141503 | 18 | 59 | 11.3 | 19.3 | 0.03 | 0.03 | 0.03 | 84 | 1019.0 |
| 20260906141003 | 19 | 78 | 9.7 | 19.3 | 0.03 | 0.03 | 0.03 | 86 | 1019.0 |
| 20260906140504 | 18 | 68 | 8.0 | 14.5 | 0.03 | 0.03 | 0.03 | 87 | 1018.9 |
| 20260906140004 | 18 | 2 | 6.4 | 12.9 | 0.03 | 0.03 | 0.03 | 88 | 1018.8 |
| 20260906135503 | 18 | 4 | 14.5 | 24.1 | 0.03 | 0.03 | 0.03 | 87 | 1018.9 |
| 20260906135004 | 18 | 47 | 8.0 | 16.1 | 0.00 | 0.00 | 0.00 | 88 | 1018.8 |
| 20260906134504 | 18 | 28 | 9.7 | 19.3 | 0.00 | 0.00 | 0.00 | 87 | 1018.8 |
| 20260906134004 | 18 | 31 | 11.3 | 20.9 | 0.00 | 0.00 | 0.00 | 87 | 1018.8 |
| 20260906133504 | 18 | 6 | 4.8 | 12.9 | 0.00 | 0.00 | 0.00 | 87 | 1018.8 |
| 20260906133003 | 19 | 32 | 8.0 | 14.5 | 0.00 | 0.00 | 0.00 | 87 | 1018.8 |
| 20260906132504 | 19 | 11 | 8.0 | 19.3 | 0.00 | 0.00 | 0.00 | 87 | 1018.7 |
| 20260906132004 | 19 | 34 | 8.0 | 16.1 | 0.00 | 0.00 | 0.00 | 87 | 1018.7 |
| 20260906131503 | 18 | 17 | 8.0 | 11.3 | 0.00 | 0.00 | 0.00 | 87 | 1018.6 |
| 20260906131003 | 18 | 44 | 8.0 | 11.3 | 0.00 | 0.00 | 0.00 | 87 | 1018.6 |
| 20260906130504 | 18 | 30 | 8.0 | 19.3 | 0.00 | 0.00 | 0.00 | 87 | 1018.7 |
| 20260906130003 | 18 | 19 | 4.8 | 14.5 | 0.00 | 0.00 | 0.00 | 89 | 1018.7 |
| 20260906125504 | 18 | 39 | 6.4 | 11.3 | 0.00 | 0.00 | 0.00 | 91 | 1018.6 |
| 20260906125004 | 18 | 33 | 4.8 | 12.9 | 0.00 | 0.00 | 0.00 | 92 | 1018.6 |
| 20260906124004 | 17 | 83 | 4.8 | 16.1 | 0.00 | 0.00 | 0.00 | 93 | 1018.5 |
| 20260906123502 | 17 | 66 | 8.0 | 14.5 | 0.00 | 0.00 | 0.00 | 93 | 1018.5 |
| 20260906122502 | 18 | 26 | 4.8 | 9.7 | 0.00 | 0.00 | 0.00 | 94 | 1018.4 |
| 20260906122002 | 17 | 53 | 4.8 | 16.1 | 0.00 | 0.00 | 0.00 | 95 | 1018.3 |
| 20260906121502 | 17 | 61 | 3.2 | 4.8 | 0.00 | 0.00 | 0.00 | 95 | 1018.2 |
| 20260906121002 | 17 | 49 | 6.4 | 11.3 | 0.00 | 0.00 | 0.00 | 95 | 1018.2 |
| 20260906120502 | 17 | 47 | 9.7 | 16.1 | 0.00 | 0.00 | 0.00 | 95 | 1018.1 |
| 20260906115002 | 17 | 56 | 8.0 | 14.5 | 0.00 | 0.00 | 0.00 | 97 | 1018.0 |
| 20260906114502 | 17 | 74 | 4.8 | 12.9 | 0.00 | 0.00 | 0.00 | 97 | 1017.9 |
| 20260906114002 | 17 | 5 | 3.2 | 12.9 | 0.00 | 0.00 | 0.00 | 98 | 1017.9 |
| 20260906113503 | 17 | 115 | 1.6 | 4.8 | 0.00 | 0.00 | 0.00 | 99 | 1017.8 |
| 20260906113002 | 17 | 69 | 1.6 | 4.8 | 0.00 | 0.00 | 0.00 | 99 | 1017.7 |
| 20260906112502 | 17 | 52 | 3.2 | 9.7 | 0.00 | 0.00 | 0.00 | 99 | 1017.7 |
| 20260906112002 | 17 | 75 | 8.0 | 14.5 | 0.00 | 0.00 | 0.00 | 100 | 1017.6 |
| 20260906111502 | 17 | 53 | 3.2 | 8.0 | 0.00 | 0.00 | 0.00 | 100 | 1017.6 |
| 20260906111001 | 18 | 0 | 0.0 | 0.0 | 0.00 | 0.00 | 0.00 | 92 | 1017.6 |
| 20260906110502 | 18 | 0 | 0.0 | 0.0 | 0.00 | 0.00 | 0.00 | 92 | 1017.6 |
| 20260906110002 | 18 | 0 | 0.0 | 0.0 | 0.00 | 0.00 | 0.00 | 92 | 1017.5 |
| 20260906105502 | 18 | 0 | 0.0 | 0.0 | 0.00 | 0.00 | 0.00 | 92 | 1017.4 |
| 20260906105001 | 18 | 0 | 0.0 | 0.0 | 0.00 | 0.00 | 0.00 | 92 | 1017.4 |
| 20260906104502 | 18 | 0 | 0.0 | 0.0 | 0.00 | 0.00 | 0.00 | 92 | 1017.4 |
| 20260906104003 | 18 | 0 | 0.0 | 0.0 | 0.00 | 0.00 | 0.00 | 92 | 1017.3 |
| 20260906103502 | 18 | 0 | 0.0 | 0.0 | 0.00 | 0.00 | 0.00 | 92 | 1017.3 |
| 20260906102502 | 18 | 0 | 0.0 | 0.0 | 0.00 | 0.00 | 0.00 | 92 | 1017.1 |
| 20260906101502 | 18 | 0 | 0.0 | 0.0 | 0.00 | 0.00 | 0.00 | 92 | 1017.1 |
| 20260906101002 | 18 | 0 | 0.0 | 0.0 | 0.00 | 0.00 | 0.00 | 92 | 1016.9 |
| 20260906100502 | 18 | 0 | 0.0 | 0.0 | 0.00 | 0.00 | 0.00 | 92 | 1016.8 |
| 20260906100002 | 18 | 0 | 0.0 | 0.0 | 0.00 | 0.00 | 0.00 | 92 | 1016.8 |
| 20260906095502 | 18 | 0 | 0.0 | 0.0 | 0.00 | 0.00 | 0.00 | 92 | 1016.8 |
| 20260906095002 | 18 | 0 | 0.0 | 0.0 | 0.00 | 0.00 | 0.00 | 92 | 1016.7 |
| 20260906094502 | 18 | 0 | 0.0 | 0.0 | 0.00 | 0.00 | 0.00 | 92 | 1016.6 |
| 20260906094002 | 18 | 0 | 0.0 | 0.0 | 0.00 | 0.00 | 0.00 | 92 | 1016.6 |
| 20260906093502 | 18 | 0 | 0.0 | 0.0 | 0.00 | 0.00 | 0.00 | 92 | 1016.6 |
| 20260906092502 | 18 | 0 | 0.0 | 0.0 | 0.00 | 0.00 | 0.00 | 92 | 1016.4 |
| 20260906092002 | 18 | 0 | 0.0 | 0.0 | 0.00 | 0.00 | 0.00 | 92 | 1016.3 |
| 20260906091002 | 18 | 0 | 0.0 | 0.0 | 0.00 | 0.00 | 0.00 | 92 | 1016.2 |
| 20260906090502 | 18 | 0 | 0.0 | 0.0 | 0.00 | 0.00 | 0.00 | 92 | 1016.0 |
| 20260906090002 | 18 | 0 | 0.0 | 0.0 | 0.00 | 0.00 | 0.00 | 92 | 1016.0 |
| 20260906085501 | 18 | 0 | 0.0 | 0.0 | 0.00 | 0.00 | 0.00 | 92 | 1016.0 |
| 20260906084502 | 18 | 0 | 0.0 | 0.0 | 0.00 | 0.00 | 0.00 | 92 | 1015.9 |
| 20260906084003 | 18 | 0 | 0.0 | 0.0 | 0.00 | 0.00 | 0.00 | 92 | 1015.9 |
| 20260906083502 | 18 | 0 | 0.0 | 0.0 | 0.00 | 0.00 | 0.00 | 92 | 1015.9 |
| 20260906083002 | 18 | 0 | 0.0 | 0.0 | 0.00 | 0.00 | 0.00 | 92 | 1015.9 |
| 20260906082003 | 18 | 0 | 0.0 | 0.0 | 0.00 | 0.00 | 0.00 | 92 | 1015.8 |
| 20260906081002 | 18 | 0 | 0.0 | 0.0 | 0.00 | 0.00 | 0.00 | 92 | 1015.8 |
| 20260906080502 | 18 | 0 | 0.0 | 0.0 | 0.00 | 0.00 | 0.00 | 92 | 1015.8 |
| 20260906080002 | 18 | 0 | 0.0 | 0.0 | 0.00 | 0.00 | 0.00 | 92 | 1015.8 |
| 20260906075502 | 18 | 0 | 0.0 | 0.0 | 0.00 | 0.00 | 0.00 | 92 | 1015.7 |
| 20260906075002 | 18 | 0 | 0.0 | 0.0 | 0.00 | 0.00 | 0.00 | 92 | 1015.7 |
| 20260906074503 | 18 | 0 | 0.0 | 0.0 | 0.00 | 0.00 | 0.00 | 92 | 1015.6 |
| 20260906074002 | 18 | 0 | 0.0 | 0.0 | 0.00 | 0.00 | 0.00 | 92 | 1015.6 |
| 20260906073502 | 18 | 0 | 0.0 | 0.0 | 0.00 | 0.00 | 0.00 | 92 | 1015.6 |
| 20260906072502 | 18 | 0 | 0.0 | 0.0 | 0.00 | 0.00 | 0.00 | 92 | 1015.6 |
| 20260906072002 | 18 | 0 | 0.0 | 0.0 | 0.00 | 0.00 | 0.00 | 92 | 1015.7 |
| 20260906071502 | 18 | 0 | 0.0 | 0.0 | 0.00 | 0.00 | 0.00 | 92 | 1015.6 |
| 20260906071002 | 18 | 0 | 0.0 | 0.0 | 0.00 | 0.00 | 0.00 | 92 | 1015.7 |
| 20260906070502 | 18 | 0 | 0.0 | 0.0 | 0.00 | 0.00 | 0.00 | 92 | 1015.6 |
| 20260906065003 | 18 | 0 | 0.0 | 0.0 | 0.00 | 0.00 | 0.00 | 92 | 1015.6 |
| 20260906064502 | 18 | 0 | 0.0 | 0.0 | 0.00 | 0.00 | 0.00 | 92 | 1015.7 |
| 20260906064003 | 18 | 0 | 0.0 | 0.0 | 0.00 | 0.00 | 0.00 | 92 | 1015.6 |
| 20260906063503 | 18 | 0 | 0.0 | 0.0 | 0.00 | 0.00 | 0.00 | 92 | 1015.7 |
| 20260906063002 | 18 | 0 | 0.0 | 0.0 | 0.00 | 0.00 | 0.00 | 92 | 1015.7 |
| 20260906062503 | 18 | 0 | 0.0 | 0.0 | 0.00 | 0.00 | 0.00 | 92 | 1015.6 |
| 20260906062002 | 18 | 0 | 0.0 | 0.0 | 0.00 | 0.00 | 0.00 | 92 | 1015.7 |
| 20260906061002 | 18 | 0 | 0.0 | 0.0 | 0.00 | 0.00 | 0.00 | 92 | 1015.6 |
| 20260906060002 | 18 | 0 | 0.0 | 0.0 | 0.00 | 0.00 | 0.00 | 92 | 1015.7 |
| 20260906054502 | 18 | 0 | 0.0 | 0.0 | 0.00 | 0.00 | 0.00 | 92 | 1015.7 |
| 20260906054002 | 18 | 0 | 0.0 | 0.0 | 0.00 | 0.00 | 0.00 | 92 | 1015.7 |
| 20260906053002 | 18 | 0 | 0.0 | 0.0 | 0.00 | 0.00 | 0.00 | 92 | 1015.7 |
| 20260906052503 | 18 | 0 | 0.0 | 0.0 | 0.00 | 0.00 | 0.00 | 92 | 1015.7 |
| 20260906052002 | 18 | 0 | 0.0 | 0.0 | 0.00 | 0.00 | 0.00 | 92 | 1015.8 |
| 20260906051503 | 18 | 0 | 0.0 | 0.0 | 0.00 | 0.00 | 0.00 | 92 | 1015.8 |
| 20260906051002 | 18 | 0 | 0.0 | 0.0 | 0.00 | 0.00 | 0.00 | 92 | 1015.8 |
| 20260906050502 | 18 | 0 | 0.0 | 0.0 | 0.00 | 0.00 | 0.00 | 92 | 1015.7 |
| 20260906045503 | 18 | 0 | 0.0 | 0.0 | 0.00 | 0.00 | 0.00 | 92 | 1015.6 |
| 20260906045002 | 18 | 0 | 0.0 | 0.0 | 0.00 | 0.00 | 0.00 | 92 | 1015.6 |
| 20260906044502 | 18 | 0 | 0.0 | 0.0 | 0.00 | 0.00 | 0.00 | 92 | 1015.6 |
| 20260906044003 | 18 | 0 | 0.0 | 0.0 | 0.00 | 0.00 | 0.00 | 92 | 1015.6 |
| 20260906043502 | 18 | 0 | 0.0 | 0.0 | 0.00 | 0.00 | 0.00 | 92 | 1015.6 |
| 20260906043002 | 18 | 0 | 0.0 | 0.0 | 0.00 | 0.00 | 0.00 | 92 | 1015.5 |
| 20260906042503 | 18 | 0 | 0.0 | 0.0 | 0.00 | 0.00 | 0.00 | 92 | 1015.6 |
| 20260906041503 | 18 | 0 | 0.0 | 0.0 | 0.00 | 0.00 | 0.00 | 92 | 1015.6 |
| 20260906041003 | 18 | 0 | 0.0 | 0.0 | 0.00 | 0.00 | 0.00 | 92 | 1015.5 |
| 20260906040502 | 18 | 0 | 0.0 | 0.0 | 0.00 | 0.00 | 0.00 | 92 | 1015.5 |
| 20260906035503 | 18 | 0 | 0.0 | 0.0 | 0.00 | 0.00 | 0.00 | 92 | 1015.5 |
| 20260906035002 | 18 | 0 | 0.0 | 0.0 | 0.00 | 0.00 | 0.00 | 92 | 1015.5 |
| 20260906034502 | 18 | 0 | 0.0 | 0.0 | 0.00 | 0.00 | 0.00 | 92 | 1015.5 |
| 20260906034003 | 18 | 0 | 0.0 | 0.0 | 0.00 | 0.00 | 0.00 | 92 | 1015.5 |
| 20260906033502 | 18 | 0 | 0.0 | 0.0 | 0.00 | 0.00 | 0.00 | 92 | 1015.5 |
| 20260906033002 | 18 | 0 | 0.0 | 0.0 | 0.00 | 0.00 | 0.00 | 92 | 1015.4 |
| 20260906032503 | 18 | 0 | 0.0 | 0.0 | 0.00 | 0.00 | 0.00 | 92 | 1015.5 |
| 20260906032002 | 18 | 0 | 0.0 | 0.0 | 0.00 | 0.00 | 0.00 | 92 | 1015.5 |
| 20260906031503 | 18 | 0 | 0.0 | 0.0 | 0.00 | 0.00 | 0.00 | 92 | 1015.5 |
| 20260906030002 | 18 | 0 | 0.0 | 0.0 | 0.00 | 0.00 | 0.00 | 92 | 1015.4 |
| 20260906025502 | 18 | 0 | 0.0 | 0.0 | 0.00 | 0.00 | 0.00 | 92 | 1015.4 |
| 20260906025002 | 18 | 0 | 0.0 | 0.0 | 0.00 | 0.00 | 0.00 | 92 | 1015.3 |
| 20260906024002 | 18 | 0 | 0.0 | 0.0 | 0.00 | 0.00 | 0.00 | 92 | 1015.3 |
| 20260906023503 | 18 | 0 | 0.0 | 0.0 | 0.00 | 0.00 | 0.00 | 92 | 1015.3 |
| 20260906023002 | 18 | 0 | 0.0 | 0.0 | 0.00 | 0.00 | 0.00 | 92 | 1015.3 |
| 20260906022502 | 18 | 0 | 0.0 | 0.0 | 0.00 | 0.00 | 0.00 | 92 | 1015.2 |
| 20260906021502 | 18 | 0 | 0.0 | 0.0 | 0.00 | 0.00 | 0.00 | 92 | 1015.2 |
| 20260906021003 | 18 | 0 | 0.0 | 0.0 | 0.00 | 0.00 | 0.00 | 92 | 1015.1 |
| 20260906020002 | 18 | 0 | 0.0 | 0.0 | 0.00 | 0.00 | 0.00 | 92 | 1015.3 |
| 20260906015503 | 18 | 0 | 0.0 | 0.0 | 0.00 | 0.00 | 0.00 | 92 | 1015.2 |
| 20260906015003 | 18 | 0 | 0.0 | 0.0 | 0.00 | 0.00 | 0.00 | 92 | 1015.2 |
| 20260906014003 | 18 | 0 | 0.0 | 0.0 | 0.00 | 0.00 | 0.00 | 92 | 1015.1 |
| 20260906013003 | 18 | 0 | 0.0 | 0.0 | 0.00 | 0.00 | 0.00 | 92 | 1015.0 |
| 20260906012502 | 18 | 0 | 0.0 | 0.0 | 0.00 | 0.00 | 0.00 | 92 | 1015.0 |
| 20260906012003 | 18 | 0 | 0.0 | 0.0 | 0.00 | 0.00 | 0.00 | 92 | 1015.0 |
| 20260906011503 | 18 | 0 | 0.0 | 0.0 | 0.00 | 0.00 | 0.00 | 92 | 1015.0 |
| 20260906011003 | 18 | 0 | 0.0 | 0.0 | 0.00 | 0.00 | 0.00 | 92 | 1015.0 |
| 20260906010503 | 18 | 0 | 0.0 | 0.0 | 0.00 | 0.00 | 0.00 | 92 | 1015.1 |
| 20260906010003 | 18 | 0 | 0.0 | 0.0 | 0.00 | 0.00 | 0.00 | 92 | 1015.1 |
| 20260906005503 | 18 | 0 | 0.0 | 0.0 | 0.00 | 0.00 | 0.00 | 92 | 1014.9 |
| 20260906005003 | 18 | 0 | 0.0 | 0.0 | 0.00 | 0.00 | 0.00 | 92 | 1014.9 |
| 20260906004002 | 18 | 0 | 0.0 | 0.0 | 0.00 | 0.00 | 0.00 | 92 | 1014.7 |
| 20260906003503 | 18 | 0 | 0.0 | 0.0 | 0.00 | 0.00 | 0.00 | 92 | 1014.7 |
| 20260906003002 | 18 | 13 | 0.0 | 0.0 | 0.00 | 0.00 | 0.00 | 92 | 1014.6 |
| 20260906002503 | 18 | 13 | 0.0 | 0.0 | 0.00 | 0.00 | 0.00 | 92 | 1014.8 |
| 20260906002002 | 18 | 12 | 0.0 | 0.0 | 0.00 | 0.00 | 0.00 | 91 | 1014.8 |
| 20260906001503 | 19 | 12 | 0.0 | 1.6 | 0.00 | 0.00 | 0.00 | 91 | 1014.9 |
| 20260906001003 | 19 | 13 | 0.0 | 0.0 | 0.00 | 0.00 | 0.00 | 91 | 1015.0 |
| 20260906000003 | 19 | 316 | 0.0 | 1.6 | 0.00 | 0.00 | 0.00 | 90 | 1014.9 |
| 20260905235503 | 19 | 316 | 0.0 | 0.0 | 0.00 | 0.00 | 0.00 | 89 | 1015.0 |
| 20260905235003 | 19 | 316 | 0.0 | 1.6 | 0.00 | 0.00 | 0.00 | 89 | 1014.9 |
| 20260905234003 | 20 | 315 | 0.0 | 3.2 | 0.00 | 0.00 | 0.00 | 89 | 1014.8 |
| 20260905233503 | 20 | 319 | 0.0 | 1.6 | 0.00 | 0.00 | 0.00 | 88 | 1014.8 |
| 20260905233003 | 20 | 330 | 1.6 | 3.2 | 0.00 | 0.00 | 0.00 | 88 | 1015.0 |
| 20260905232503 | 20 | 332 | 0.0 | 3.2 | 0.00 | 0.00 | 0.00 | 87 | 1014.9 |
| 20260905232003 | 20 | 320 | 1.6 | 3.2 | 0.00 | 0.00 | 0.00 | 87 | 1014.8 |
| 20260905231503 | 20 | 335 | 0.0 | 3.2 | 0.00 | 0.00 | 0.00 | 86 | 1014.9 |
| 20260905230503 | 20 | 352 | 1.6 | 4.8 | 0.00 | 0.00 | 0.00 | 85 | 1014.9 |
| 20260905230003 | 20 | 326 | 3.2 | 4.8 | 0.00 | 0.00 | 0.00 | 85 | 1014.8 |
| 20260905225503 | 20 | 296 | 3.2 | 4.8 | 0.00 | 0.00 | 0.00 | 84 | 1014.8 |
| 20260905225003 | 20 | 354 | 1.6 | 4.8 | 0.00 | 0.00 | 0.00 | 84 | 1014.9 |
| 20260905224503 | 20 | 300 | 3.2 | 9.7 | 0.00 | 0.00 | 0.00 | 83 | 1015.0 |
| 20260905224003 | 21 | 328 | 3.2 | 9.7 | 0.00 | 0.00 | 0.00 | 82 | 1015.0 |
| 20260905223003 | 21 | 17 | 4.8 | 8.0 | 0.00 | 0.00 | 0.00 | 82 | 1014.9 |
| 20260905222502 | 21 | 322 | 3.2 | 9.7 | 0.00 | 0.00 | 0.00 | 82 | 1014.9 |
| 20260905222003 | 21 | 5 | 6.4 | 9.7 | 0.00 | 0.00 | 0.00 | 81 | 1014.9 |
| 20260905221503 | 21 | 325 | 4.8 | 9.7 | 0.00 | 0.00 | 0.00 | 79 | 1014.8 |
| 20260905221003 | 21 | 303 | 3.2 | 4.8 | 0.00 | 0.00 | 0.00 | 81 | 1014.8 |
| 20260905220502 | 21 | 13 | 4.8 | 9.7 | 0.00 | 0.00 | 0.00 | 81 | 1014.7 |
| 20260905220003 | 21 | 323 | 4.8 | 4.8 | 0.00 | 0.00 | 0.00 | 80 | 1014.7 |
| 20260905215503 | 21 | 12 | 8.0 | 12.9 | 0.00 | 0.00 | 0.00 | 80 | 1014.7 |
| 20260905215003 | 21 | 308 | 3.2 | 8.0 | 0.00 | 0.00 | 0.00 | 79 | 1014.6 |
| 20260905214503 | 21 | 316 | 6.4 | 9.7 | 0.00 | 0.00 | 0.00 | 79 | 1014.7 |
| 20260905214002 | 22 | 341 | 6.4 | 9.7 | 0.00 | 0.00 | 0.00 | 79 | 1014.7 |
| 20260905213503 | 21 | 311 | 3.2 | 9.7 | 0.00 | 0.00 | 0.00 | 81 | 1014.6 |